Dange, Nigeria
Current Conditions -  °F | °C
As of 7:00 AM on Saturday 25 Oct 2014 (Local Time) from DRRN Reporting Station
Clear Clear  
Wind Chill: 75°   Ceiling: Unl
Heat Index: 75°   Visibility: 4mi
Dew Point: 59°   Wind: 1mph
Humidity: 57%   Direction: NA
Pressure: 29.85"   Gusts: NA
Location:  12.84°N, 5.35°E
Report Text: DRRN 250600Z VRB01KT 6000 NSC 24/15 Q1011 BECMG 4000 DU
Loading
Personal Weather Stations






























Interactive Weather Map
Tropical Storm Tracking
New forecast layout! Learn more

10-Day Weather Forecast

Advertisements
Track Severe Weather on mobile